KILG

New Castle Airport

Wilmington, Delaware, USA
METAR KILG 220451Z AUTO 20005KT 10SM FEW014 22/20 A2985 RMK AO2 SLP109 T02220200 402940217
Observed Flight Rules
Jun-22 @ 04:51 UTC (44 minutes ago) Visual Flight Rules
Wind Visibility Clouds
200° at 5 knots 10 miles
  • Few at 1,400' AGL
Temperatures Readings
Current 22°C / 72°F
Dewpoint 20°C / 68°F
Humidity 88%
Altimeter 29.85" Hg
Pressure 1010.9 hPa
Elevation 28
METAR KILG 220451Z AUTO 20005KT 10SM FEW014 22/20 A2985 RMK AO2 SLP109 T02220200 402940217
Observed Flight Rules
Jun-22 @ 04:51 UTC
(44 minutes ago)
VFR
Wind Visibility
200° at 5 knots 10 miles
Clouds
  • Few at 1,400' AGL
Temperature Dewpoint
22°C / 72°F 20°C / 68°F
Humidity Altimeter Pressure
88% 29.85" Hg 1010.9 hPa